createdAt,value
2018-02-22T00:01:45.616Z,98408.79
2018-02-22T00:04:11.856Z,98408.02
2018-02-22T00:06:38.136Z,98405.09
2018-02-22T00:09:04.469Z,98407.42
2018-02-22T00:11:30.702Z,98406.84
2018-02-22T00:13:56.975Z,98400.03
2018-02-22T00:16:23.204Z,98399.06
2018-02-22T00:18:49.496Z,98395.75
2018-02-22T00:21:15.779Z,98391.86
2018-02-22T00:23:42.007Z,98389.52
2018-02-22T00:26:08.232Z,98394.02
2018-02-22T00:28:34.580Z,98393.03
2018-02-22T00:31:00.928Z,98387.20
2018-02-22T00:33:27.170Z,98389.11
2018-02-22T00:35:53.427Z,98387.36
2018-02-22T00:38:19.662Z,98388.73
2018-02-22T00:40:45.928Z,98385.22
2018-02-22T00:43:12.199Z,98383.84
2018-02-22T00:45:38.427Z,98379.97
2018-02-22T00:48:04.669Z,98377.64
2018-02-22T00:50:31.023Z,98366.94
2018-02-22T00:52:57.299Z,98369.47
2018-02-22T00:55:23.523Z,98365.17
2018-02-22T00:57:49.776Z,98372.55
2018-02-22T01:00:16.167Z,98368.67
2018-02-22T01:02:42.411Z,98369.03
2018-02-22T01:05:08.675Z,98370.19
2018-02-22T01:07:34.912Z,98367.88
2018-02-22T01:10:01.260Z,98368.47
2018-02-22T01:12:27.524Z,98371.95
2018-02-22T01:14:53.773Z,98368.27
2018-02-22T01:17:20.017Z,98363.20
2018-02-22T01:19:46.432Z,98367.30
2018-02-22T01:22:12.655Z,98362.80
2018-02-22T01:24:38.911Z,98357.58
2018-02-22T01:27:05.192Z,98364.55
2018-02-22T01:29:31.552Z,98364.98
2018-02-22T01:31:57.781Z,98366.12
2018-02-22T01:34:24.044Z,98365.16
2018-02-22T01:36:50.283Z,98365.70
2018-02-22T01:39:16.636Z,98361.42
2018-02-22T01:41:42.910Z,98361.81
2018-02-22T01:44:09.161Z,98369.58
2018-02-22T01:46:35.399Z,98363.94
2018-02-22T01:49:01.849Z,98370.17
2018-02-22T01:51:28.080Z,98371.91
2018-02-22T01:53:54.315Z,98370.16
2018-02-22T01:56:20.573Z,98368.63
2018-02-22T01:58:47.003Z,98364.72
2018-02-22T02:01:13.255Z,98364.14
2018-02-22T02:03:39.512Z,98366.09
2018-02-22T02:06:05.748Z,98365.16
2018-02-22T02:08:32.235Z,98368.03
2018-02-22T02:10:58.493Z,98371.70
2018-02-22T02:13:24.768Z,98373.06
2018-02-22T02:15:50.998Z,98373.45
2018-02-22T02:18:17.444Z,98373.25
2018-02-22T02:20:43.767Z,98376.14
2018-02-22T02:23:09.967Z,98364.28
2018-02-22T02:25:36.226Z,98365.23
2018-02-22T02:28:07.638Z,98364.63
2018-02-22T02:30:33.872Z,98359.23
2018-02-22T02:33:00.159Z,98366.42
2018-02-22T02:35:26.395Z,98365.61
2018-02-22T02:37:52.761Z,98365.04
2018-02-22T02:40:19.037Z,98363.30
2018-02-22T02:42:45.273Z,98357.88
2018-02-22T02:45:11.500Z,98359.41
2018-02-22T02:47:37.795Z,98356.68
2018-02-22T02:50:04.031Z,98357.48
2018-02-22T02:52:30.251Z,98353.95
2018-02-22T02:54:56.508Z,98365.98
2018-02-22T02:57:22.841Z,98356.64
2018-02-22T02:59:49.138Z,98358.78
2018-02-22T03:02:15.395Z,98359.00
2018-02-22T03:04:41.625Z,98355.69
2018-02-22T03:07:07.855Z,98355.69
2018-02-22T03:09:34.153Z,98355.13
2018-02-22T03:12:00.408Z,98352.58
2018-02-22T03:14:26.628Z,98359.15
2018-02-22T03:16:53.539Z,98350.91
2018-02-22T03:19:19.775Z,98353.52
2018-02-22T03:21:46.003Z,98360.38
2018-02-22T03:24:12.255Z,98353.50
2018-02-22T03:26:38.497Z,98362.34
2018-02-22T03:29:04.876Z,98357.34
2018-02-22T03:31:31.141Z,98361.91
2018-02-22T03:33:57.368Z,98357.27
2018-02-22T03:36:23.692Z,98353.77
2018-02-22T03:38:49.987Z,98355.91
2018-02-22T03:41:16.223Z,98353.21
2018-02-22T03:43:42.472Z,98356.91
2018-02-22T03:46:08.721Z,98347.98
2018-02-22T03:48:35.014Z,98353.38
2018-02-22T03:51:01.247Z,98353.83
2018-02-22T03:53:27.503Z,98351.88
2018-02-22T03:55:53.743Z,98349.69
2018-02-22T03:58:20.036Z,98353.77
2018-02-22T04:00:46.300Z,98343.09
2018-02-22T04:03:12.540Z,98356.30
2018-02-22T04:05:38.848Z,98351.66
2018-02-22T04:08:05.204Z,98356.50
2018-02-22T04:10:31.428Z,98356.69
2018-02-22T04:12:57.679Z,98359.98
2018-02-22T04:15:24.009Z,98353.59
2018-02-22T04:17:50.339Z,98352.78
2018-02-22T04:20:16.578Z,98354.94
2018-02-22T04:22:42.852Z,98355.31
2018-02-22T04:25:09.118Z,98356.30
2018-02-22T04:27:35.468Z,98353.59
2018-02-22T04:30:01.734Z,98353.56
2018-02-22T04:32:27.997Z,98352.97
2018-02-22T04:34:54.263Z,98349.48
2018-02-22T04:37:20.694Z,98347.33
2018-02-22T04:39:46.927Z,98352.78
2018-02-22T04:42:13.155Z,98353.27
2018-02-22T04:44:39.413Z,98352.86
2018-02-22T04:47:05.838Z,98350.16
2018-02-22T04:49:32.071Z,98348.78
2018-02-22T04:51:58.338Z,98353.75
2018-02-22T04:54:24.586Z,98353.36
2018-02-22T04:56:50.844Z,98353.97
2018-02-22T04:59:17.108Z,98357.20
2018-02-22T05:01:43.331Z,98361.87
2018-02-22T05:04:09.599Z,98359.33
2018-02-22T05:06:35.852Z,98359.84
2018-02-22T05:09:02.152Z,98348.42
2018-02-22T05:11:28.370Z,98349.94
2018-02-22T05:13:54.643Z,98350.10
2018-02-22T05:16:20.871Z,98351.43
2018-02-22T05:18:47.092Z,98355.16
2018-02-22T05:21:13.354Z,98351.64
2018-02-22T05:23:39.582Z,98357.43
2018-02-22T05:26:05.807Z,98352.42
2018-02-22T05:28:32.068Z,98350.05
2018-02-22T05:30:58.308Z,98353.36
2018-02-22T05:33:24.520Z,98356.23
2018-02-22T05:35:50.795Z,98350.02
2018-02-22T05:38:17.015Z,98357.98
2018-02-22T05:40:43.256Z,98358.53
2018-02-22T05:43:09.516Z,98354.98
2018-02-22T05:45:35.757Z,98355.61
2018-02-22T05:48:01.988Z,98354.62
2018-02-22T05:50:28.235Z,98356.91
2018-02-22T05:52:54.467Z,98357.45
2018-02-22T05:55:20.699Z,98366.73
2018-02-22T05:57:46.962Z,98360.72
2018-02-22T06:00:13.201Z,98365.75
2018-02-22T06:02:39.446Z,98361.69
2018-02-22T06:05:05.740Z,98363.61
2018-02-22T06:07:31.973Z,98365.95
2018-02-22T06:09:58.196Z,98370.02
2018-02-22T06:12:24.448Z,98363.48
2018-02-22T06:14:50.684Z,98369.24
2018-02-22T06:17:16.916Z,98367.11
2018-02-22T06:19:43.172Z,98373.05
2018-02-22T06:22:09.407Z,98372.91
2018-02-22T06:24:35.634Z,98379.28
2018-02-22T06:27:01.888Z,98375.21
2018-02-22T06:29:28.120Z,98377.37
2018-02-22T06:31:54.349Z,98380.92
2018-02-22T06:34:20.615Z,98374.54
2018-02-22T06:36:46.908Z,98380.22
2018-02-22T06:39:13.140Z,98378.42
2018-02-22T06:41:39.402Z,98373.20
2018-02-22T06:44:05.663Z,98380.25
2018-02-22T06:46:31.912Z,98381.85
2018-02-22T06:48:58.167Z,98378.69
2018-02-22T06:51:24.416Z,98381.42
2018-02-22T06:53:50.642Z,98375.46
2018-02-22T06:56:16.904Z,98376.27
2018-02-22T06:58:43.132Z,98384.66
2018-02-22T07:01:09.380Z,98383.34
2018-02-22T07:03:35.636Z,98386.48
2018-02-22T07:06:01.878Z,98386.83
2018-02-22T07:08:28.124Z,98395.66
2018-02-22T07:10:54.380Z,98390.79
2018-02-22T07:13:20.613Z,98387.42
2018-02-22T07:15:46.831Z,98388.24
2018-02-22T07:18:13.085Z,98390.83
2018-02-22T07:20:39.311Z,98395.55
2018-02-22T07:23:16.650Z,98394.63
2018-02-22T07:25:31.887Z,98401.48
2018-02-22T07:27:58.121Z,98400.91
2018-02-22T07:30:24.355Z,98403.01
2018-02-22T07:32:50.603Z,98395.39
2018-02-22T07:35:16.836Z,98397.98
2018-02-22T07:37:43.076Z,98391.97
2018-02-22T07:40:09.320Z,98397.93
2018-02-22T07:42:35.556Z,98398.24
2018-02-22T07:45:01.780Z,98392.70
2018-02-22T07:47:28.028Z,98391.55
2018-02-22T07:49:54.247Z,98391.06
2018-02-22T07:52:20.460Z,98391.63
2018-02-22T07:54:46.708Z,98391.42
2018-02-22T07:57:12.932Z,98383.71
2018-02-22T07:59:39.164Z,98388.77
2018-02-22T08:02:05.412Z,98385.80
2018-02-22T08:04:31.644Z,98385.40
2018-02-22T08:06:57.847Z,98385.59
2018-02-22T08:09:24.083Z,98390.61
2018-02-22T08:11:50.296Z,98392.78
2018-02-22T08:14:16.568Z,98391.44
2018-02-22T08:16:42.826Z,98391.37
2018-02-22T08:19:09.061Z,98386.04
2018-02-22T08:21:35.276Z,98383.83
2018-02-22T08:24:01.517Z,98380.61
2018-02-22T08:26:27.772Z,98382.92
2018-02-22T08:28:53.988Z,98379.14
2018-02-22T08:31:20.236Z,98382.70
2018-02-22T08:33:46.452Z,98390.77
2018-02-22T08:36:12.679Z,98377.35
2018-02-22T08:38:38.940Z,98393.27
2018-02-22T08:41:05.202Z,98388.47
2018-02-22T08:43:31.434Z,98388.38
2018-02-22T08:45:57.696Z,98382.18
2018-02-22T08:48:23.916Z,98390.47
2018-02-22T08:50:50.152Z,98385.55
2018-02-22T08:53:16.428Z,98387.33
2018-02-22T08:55:42.660Z,98389.52
2018-02-22T08:58:08.871Z,98382.59
2018-02-22T09:00:35.147Z,98380.13
2018-02-22T09:03:01.376Z,98376.69
2018-02-22T09:05:27.604Z,98370.97
2018-02-22T09:07:53.848Z,98380.10
2018-02-22T09:10:20.064Z,98373.65
2018-02-22T09:12:46.276Z,98377.09
2018-02-22T09:15:12.528Z,98381.67
2018-02-22T09:17:38.751Z,98385.91
2018-02-22T09:20:04.983Z,98377.47
2018-02-22T09:22:31.231Z,98378.17
2018-02-22T09:24:57.464Z,98378.14
2018-02-22T09:27:23.731Z,98368.65
2018-02-22T09:29:49.988Z,98364.88
2018-02-22T09:32:16.214Z,98365.24
2018-02-22T09:34:42.431Z,98364.91
2018-02-22T09:37:08.675Z,98361.43
2018-02-22T09:39:34.895Z,98365.16
2018-02-22T09:42:01.116Z,98370.19
2018-02-22T09:44:27.355Z,98366.20
2018-02-22T09:46:53.584Z,98360.14
2018-02-22T09:49:19.800Z,98363.52
2018-02-22T09:51:46.037Z,98367.36
2018-02-22T09:54:12.259Z,98363.81
2018-02-22T09:56:38.497Z,98369.08
2018-02-22T09:59:04.754Z,98358.62
2018-02-22T10:01:30.993Z,98365.05
2018-02-22T10:03:57.215Z,98358.91
2018-02-22T10:06:23.466Z,98365.04
2018-02-22T10:08:49.692Z,98355.88
2018-02-22T10:11:15.912Z,98355.83
2018-02-22T10:13:42.173Z,98363.55
2018-02-22T10:16:08.392Z,98365.77
2018-02-22T10:18:34.605Z,98361.45
2018-02-22T10:21:00.872Z,98352.73
2018-02-22T10:23:27.111Z,98356.77
2018-02-22T10:25:53.380Z,98356.00
2018-02-22T10:28:19.664Z,98365.75
2018-02-22T10:30:45.960Z,98356.40
2018-02-22T10:33:12.191Z,98353.39
2018-02-22T10:35:38.449Z,98355.45
2018-02-22T10:38:04.663Z,98354.34
2018-02-22T10:40:30.883Z,98350.59
2018-02-22T10:42:57.129Z,98355.28
2018-02-22T10:45:23.357Z,98346.34
2018-02-22T10:47:49.576Z,98345.63
2018-02-22T10:50:15.828Z,98351.88
2018-02-22T10:52:42.067Z,98348.98
2018-02-22T10:55:08.308Z,98354.13
2018-02-22T10:57:34.552Z,98350.97
2018-02-22T11:00:00.775Z,98341.36
2018-02-22T11:02:33.220Z,98348.44
2018-02-22T11:04:59.474Z,98342.62
2018-02-22T11:07:25.701Z,98344.34
2018-02-22T11:09:51.933Z,98347.47
2018-02-22T11:12:18.179Z,98338.87
2018-02-22T11:14:44.388Z,98349.87
2018-02-22T11:17:10.607Z,98348.31
2018-02-22T11:19:36.878Z,98336.50
2018-02-22T11:22:03.117Z,98344.36
2018-02-22T11:24:29.349Z,98330.59
2018-02-22T11:26:55.628Z,98337.16
2018-02-22T11:29:22.585Z,98330.27
2018-02-22T11:31:48.816Z,98325.50
2018-02-22T11:34:15.072Z,98330.57
2018-02-22T11:36:41.296Z,98333.66
2018-02-22T11:39:07.523Z,98330.84
2018-02-22T11:41:33.807Z,98339.16
2018-02-22T11:44:00.061Z,98336.55
2018-02-22T11:46:26.311Z,98340.07
2018-02-22T11:48:52.566Z,98328.59
2018-02-22T11:51:18.808Z,98320.51
2018-02-22T11:53:45.032Z,98327.54
2018-02-22T11:56:11.277Z,98319.46
2018-02-22T11:58:37.517Z,98324.14
2018-02-22T12:01:03.758Z,98313.50
2018-02-22T12:03:30.024Z,98312.98
2018-02-22T12:05:56.265Z,98321.74
2018-02-22T12:08:22.509Z,98326.22
2018-02-22T12:10:48.777Z,98324.30
2018-02-22T12:13:15.016Z,98322.38
2018-02-22T12:15:41.227Z,98317.81
2018-02-22T12:18:07.504Z,98319.08
2018-02-22T12:20:33.724Z,98318.47
2018-02-22T12:22:59.957Z,98312.12
2018-02-22T12:25:26.219Z,98313.09
2018-02-22T12:27:52.436Z,98306.44
2018-02-22T12:30:18.690Z,98300.44
2018-02-22T12:32:44.977Z,98301.83
2018-02-22T12:35:11.203Z,98300.51
2018-02-22T12:37:37.440Z,98298.61
2018-02-22T12:40:03.733Z,98302.23
2018-02-22T12:42:29.967Z,98289.74
2018-02-22T12:44:56.193Z,98294.09
2018-02-22T12:47:22.448Z,98297.52
2018-02-22T12:49:48.754Z,98294.14
2018-02-22T12:52:14.951Z,98293.53
2018-02-22T12:54:41.199Z,98293.77
2018-02-22T12:57:07.433Z,98293.62
2018-02-22T12:59:33.650Z,98285.09
2018-02-22T13:01:59.909Z,98281.05
2018-02-22T13:04:26.124Z,98284.09
2018-02-22T13:06:52.396Z,98272.88
2018-02-22T13:09:18.652Z,98266.47
2018-02-22T13:11:44.880Z,98266.82
2018-02-22T13:14:11.104Z,98256.54
2018-02-22T13:16:37.360Z,98260.73
2018-02-22T13:19:03.584Z,98259.66
2018-02-22T13:21:29.824Z,98257.44
2018-02-22T13:23:56.086Z,98263.73
2018-02-22T13:26:22.304Z,98255.48
2018-02-22T13:28:48.549Z,98255.20
2018-02-22T13:31:14.834Z,98252.06
2018-02-22T13:33:53.231Z,98243.39
2018-02-22T13:36:19.487Z,98239.16
2018-02-22T13:38:58.008Z,98244.02
2018-02-22T13:41:24.265Z,98241.27
2018-02-22T13:44:02.667Z,98241.09
2018-02-22T13:46:28.923Z,98236.05
2018-02-22T13:49:07.378Z,98234.63
2018-02-22T13:51:33.652Z,98231.94
2018-02-22T13:53:59.896Z,98232.20
2018-02-22T13:56:38.324Z,98229.99
2018-02-22T13:59:04.536Z,98243.16
2018-02-22T14:01:43.041Z,98232.68
2018-02-22T14:04:09.259Z,98230.27
2018-02-22T14:06:35.475Z,98228.03
2018-02-22T14:09:01.720Z,98236.72
2018-02-22T14:11:27.937Z,98227.85
2018-02-22T14:13:54.161Z,98237.16
2018-02-22T14:16:20.412Z,98241.39
2018-02-22T14:18:46.635Z,98234.16
2018-02-22T14:21:12.863Z,98224.14
2018-02-22T14:23:39.119Z,98227.19
2018-02-22T14:26:05.356Z,98223.80
2018-02-22T14:28:31.587Z,98234.14
2018-02-22T14:30:57.832Z,98230.70
2018-02-22T14:33:24.076Z,98226.44
2018-02-22T14:35:50.293Z,98223.36
2018-02-22T14:38:16.551Z,98226.67
2018-02-22T14:40:42.780Z,98227.77
2018-02-22T14:43:09.026Z,98230.98
2018-02-22T14:45:35.304Z,98222.38
2018-02-22T14:48:02.153Z,98235.30
2018-02-22T14:50:28.379Z,98224.98
2018-02-22T14:52:54.633Z,98227.12
2018-02-22T14:55:20.852Z,98234.81
2018-02-22T14:57:47.071Z,98223.59
2018-02-22T15:00:13.326Z,98219.22
2018-02-22T15:02:39.549Z,98232.83
2018-02-22T15:05:05.789Z,98229.33
2018-02-22T15:07:32.087Z,98222.41
2018-02-22T15:09:58.307Z,98220.27
2018-02-22T15:12:24.532Z,98219.87
2018-02-22T15:14:50.787Z,98214.03
2018-02-22T15:17:17.051Z,98214.04
2018-02-22T15:19:43.273Z,98220.80
2018-02-22T15:22:09.533Z,98216.70
2018-02-22T15:24:35.760Z,98214.66
2018-02-22T15:27:01.998Z,98216.09
2018-02-22T15:29:28.247Z,98212.08
2018-02-22T15:31:54.468Z,98218.82
2018-02-22T15:34:20.731Z,98222.17
2018-02-22T15:36:46.972Z,98223.27
2018-02-22T15:39:13.215Z,98211.27
2018-02-22T15:41:39.447Z,98216.59
2018-02-22T15:44:05.756Z,98220.04
2018-02-22T15:46:32.052Z,98212.00
2018-02-22T15:48:58.244Z,98220.41
2018-02-22T15:51:24.489Z,98219.80
2018-02-22T15:53:50.737Z,98220.81
2018-02-22T15:56:16.945Z,98219.28
2018-02-22T15:58:43.186Z,98222.05
2018-02-22T16:01:09.408Z,98218.12
2018-02-22T16:03:35.640Z,98228.34
2018-02-22T16:06:01.896Z,98220.56
2018-02-22T16:08:28.193Z,98216.13
2018-02-22T16:10:54.458Z,98211.88
2018-02-22T16:13:20.710Z,98217.39
2018-02-22T16:15:46.940Z,98213.46
2018-02-22T16:18:13.152Z,98221.56
2018-02-22T16:20:39.420Z,98220.21
2018-02-22T16:23:05.636Z,98220.67
2018-02-22T16:25:31.880Z,98222.69
2018-02-22T16:27:58.169Z,98223.61
2018-02-22T16:30:24.397Z,98219.77
2018-02-22T16:32:50.654Z,98216.41
2018-02-22T16:35:16.961Z,98217.45
2018-02-22T16:37:43.179Z,98221.09
2018-02-22T16:40:09.408Z,98219.22
2018-02-22T16:42:35.672Z,98222.43
2018-02-22T16:45:01.918Z,98222.17
2018-02-22T16:47:28.149Z,98226.70
2018-02-22T16:49:54.436Z,98225.77
2018-02-22T16:52:20.704Z,98225.68
2018-02-22T16:54:46.929Z,98228.48
2018-02-22T16:57:13.195Z,98230.95
2018-02-22T16:59:39.436Z,98228.62
2018-02-22T17:02:06.091Z,98233.95
2018-02-22T17:04:32.360Z,98232.00
2018-02-22T17:06:58.615Z,98230.77
2018-02-22T17:09:24.943Z,98236.44
2018-02-22T17:11:51.172Z,98238.44
2018-02-22T17:14:17.467Z,98237.86
2018-02-22T17:16:43.692Z,98236.55
2018-02-22T17:19:10.960Z,98244.16
2018-02-22T17:21:37.212Z,98238.42
2018-02-22T17:24:03.498Z,98247.02
2018-02-22T17:26:35.867Z,98245.64
2018-02-22T17:29:08.098Z,98248.23
2018-02-22T17:31:40.392Z,98246.30
2018-02-22T17:34:06.677Z,98250.50
2018-02-22T17:36:33.753Z,98256.98
2018-02-22T17:39:01.071Z,98255.28
2018-02-22T17:41:38.292Z,98250.36
2018-02-22T17:44:04.624Z,98249.86
2018-02-22T17:46:30.895Z,98257.86
2018-02-22T17:48:57.191Z,98257.33
2018-02-22T17:51:23.500Z,98259.09
2018-02-22T17:53:49.720Z,98262.20
2018-02-22T17:56:16.005Z,98256.41
2018-02-22T17:58:42.304Z,98251.96
2018-02-22T18:01:08.588Z,98258.02
2018-02-22T18:03:34.878Z,98256.45
2018-02-22T18:06:01.180Z,98252.55
2018-02-22T18:08:27.458Z,98254.34
2018-02-22T18:10:53.731Z,98257.50
2018-02-22T18:13:19.998Z,98259.41
2018-02-22T18:15:46.265Z,98270.37
2018-02-22T18:18:12.572Z,98268.81
2018-02-22T18:20:38.848Z,98267.68
2018-02-22T18:23:05.244Z,98264.56
2018-02-22T18:25:31.532Z,98271.00
2018-02-22T18:27:57.835Z,98261.09
2018-02-22T18:30:24.115Z,98273.95
2018-02-22T18:32:50.347Z,98271.00
2018-02-22T18:35:16.628Z,98267.56
2018-02-22T18:37:49.004Z,98276.53
2018-02-22T18:40:21.329Z,98283.94
2018-02-22T18:42:49.612Z,98280.85
2018-02-22T18:45:15.866Z,98281.24
2018-02-22T18:47:42.220Z,98284.78
2018-02-22T18:50:08.551Z,98280.49
2018-02-22T18:52:34.815Z,98281.24
2018-02-22T18:55:01.110Z,98281.05
2018-02-22T18:57:27.352Z,98279.33
2018-02-22T18:59:53.577Z,98275.59
2018-02-22T19:02:19.840Z,98280.85
2018-02-22T19:04:46.120Z,98280.08
2018-02-22T19:07:12.348Z,98285.40
2018-02-22T19:09:38.612Z,98284.59
2018-02-22T19:12:04.866Z,98277.60
2018-02-22T19:14:31.096Z,98280.14
2018-02-22T19:16:57.401Z,98284.65
2018-02-22T19:19:23.644Z,98280.84
2018-02-22T19:21:49.912Z,98288.41
2018-02-22T19:24:16.183Z,98283.34
2018-02-22T19:26:42.404Z,98283.14
2018-02-22T19:29:08.643Z,98284.51
2018-02-22T19:31:35.893Z,98281.42
2018-02-22T19:34:02.135Z,98276.97
2018-02-22T19:36:28.394Z,98276.60
2018-02-22T19:38:54.681Z,98277.38
2018-02-22T19:41:20.990Z,98277.41
2018-02-22T19:43:47.315Z,98274.88
2018-02-22T19:46:13.588Z,98280.13
2018-02-22T19:48:39.823Z,98284.23
2018-02-22T19:51:06.097Z,98284.99
2018-02-22T19:53:32.375Z,98286.16
2018-02-22T19:55:58.751Z,98284.43
2018-02-22T19:58:25.069Z,98285.42
2018-02-22T20:00:51.380Z,98287.38
2018-02-22T20:03:17.733Z,98283.09
2018-02-22T20:05:43.976Z,98281.91
2018-02-22T20:08:10.288Z,98287.59
2018-02-22T20:10:36.588Z,98288.19
2018-02-22T20:13:02.850Z,98290.91
2018-02-22T20:15:29.149Z,98289.74
2018-02-22T20:17:55.404Z,98294.22
2018-02-22T20:20:21.680Z,98296.94
2018-02-22T20:22:47.933Z,98293.06
2018-02-22T20:25:14.183Z,98293.63
2018-02-22T20:27:40.432Z,98298.51
2018-02-22T20:30:06.702Z,98299.30
2018-02-22T20:32:32.939Z,98298.52
2018-02-22T20:34:59.186Z,98301.84
2018-02-22T20:37:25.868Z,98299.50
2018-02-22T20:39:52.174Z,98300.87
2018-02-22T20:42:18.641Z,98309.05
2018-02-22T20:44:44.884Z,98303.20
2018-02-22T20:47:11.155Z,98304.00
2018-02-22T20:49:37.549Z,98302.45
2018-02-22T20:52:04.670Z,98307.11
2018-02-22T20:54:31.248Z,98304.97
2018-02-22T20:56:57.591Z,98304.59
2018-02-22T20:59:23.911Z,98303.22
2018-02-22T21:01:50.164Z,98310.80
2018-02-22T21:04:17.296Z,98303.23
2018-02-22T21:06:43.911Z,98305.77
2018-02-22T21:09:10.138Z,98311.02
2018-02-22T21:11:36.369Z,98306.55
2018-02-22T21:14:02.647Z,98309.07
2018-02-22T21:16:28.884Z,98308.48
2018-02-22T21:18:55.140Z,98304.39
2018-02-22T21:21:21.404Z,98300.91
2018-02-22T21:23:47.654Z,98299.55
2018-02-22T21:26:13.893Z,98300.13
2018-02-22T21:28:40.225Z,98287.30
2018-02-22T21:31:06.531Z,98293.91
2018-02-22T21:33:33.977Z,98285.17
2018-02-22T21:36:00.296Z,98292.37
2018-02-22T21:38:26.560Z,98292.17
2018-02-22T21:40:52.812Z,98288.66
2018-02-22T21:43:19.085Z,98286.13
2018-02-22T21:45:45.463Z,98288.05
2018-02-22T21:48:11.725Z,98286.34
2018-02-22T21:50:37.988Z,98282.03
2018-02-22T21:53:04.232Z,98285.92
2018-02-22T21:55:30.496Z,98288.26
2018-02-22T21:57:56.759Z,98285.33
2018-02-22T22:00:22.992Z,98286.50
2018-02-22T22:02:49.232Z,98287.67
2018-02-22T22:05:15.502Z,98284.94
2018-02-22T22:07:41.889Z,98281.83
2018-02-22T22:10:08.186Z,98277.95
2018-02-22T22:12:34.484Z,98278.11
2018-02-22T22:15:00.752Z,98280.27
2018-02-22T22:17:26.993Z,98281.63
2018-02-22T22:19:53.261Z,98283.38
2018-02-22T22:22:19.506Z,98279.08
2018-02-22T22:24:45.740Z,98279.08
2018-02-22T22:27:12.027Z,98280.23
2018-02-22T22:29:38.260Z,98269.36
2018-02-22T22:32:04.622Z,98276.34
2018-02-22T22:34:30.915Z,98274.40
2018-02-22T22:36:57.142Z,98271.30
2018-02-22T22:39:23.364Z,98273.61
2018-02-22T22:41:49.743Z,98273.60
2018-02-22T22:44:16.064Z,98271.84
2018-02-22T22:46:42.577Z,98273.02
2018-02-22T22:49:08.865Z,98270.86
2018-02-22T22:51:35.272Z,98271.06
2018-02-22T22:54:01.552Z,98275.16
2018-02-22T22:56:27.855Z,98275.92
2018-02-22T22:58:54.078Z,98281.55
2018-02-22T23:01:20.316Z,98280.56
2018-02-22T23:03:46.712Z,98281.89
2018-02-22T23:06:13.935Z,98275.67
2018-02-22T23:08:40.172Z,98273.16
2018-02-22T23:11:06.454Z,98273.34
2018-02-22T23:13:32.697Z,98271.80
2018-02-22T23:15:58.949Z,98275.66
2018-02-22T23:18:25.211Z,98275.06
2018-02-22T23:20:51.447Z,98270.61
2018-02-22T23:23:17.884Z,98278.55
2018-02-22T23:25:44.361Z,98280.88
2018-02-22T23:28:10.636Z,98278.36
2018-02-22T23:30:36.871Z,98274.08
2018-02-22T23:33:03.204Z,98281.44
2018-02-22T23:35:29.451Z,98279.70
2018-02-22T23:37:55.797Z,98278.53
2018-02-22T23:40:32.029Z,98278.32
2018-02-22T23:42:58.283Z,98273.09
2018-02-22T23:45:24.647Z,98277.16
2018-02-22T23:47:51.278Z,98277.94
2018-02-22T23:50:17.707Z,98270.75
2018-02-22T23:52:44.199Z,98274.99
2018-02-22T23:55:10.517Z,98267.23
2018-02-22T23:57:36.989Z,98269.94
